sensor_id;sensor_type;location;lat;lon;timestamp;pressure;altitude;pressure_sealevel;temperature;humidity
74708;BME280;63360;50.104;8.074;2023-04-06T00:01:51;97388.50;;;-0.34;79.54
74708;BME280;63360;50.104;8.074;2023-04-06T00:04:17;97388.22;;;-0.38;78.54
74708;BME280;63360;50.104;8.074;2023-04-06T00:06:44;97380.63;;;-0.33;78.99
74708;BME280;63360;50.104;8.074;2023-04-06T00:09:10;97368.53;;;-0.37;78.15
74708;BME280;63360;50.104;8.074;2023-04-06T00:11:37;97372.63;;;-0.36;77.26
74708;BME280;63360;50.104;8.074;2023-04-06T00:14:03;97378.44;;;-0.41;79.54
74708;BME280;63360;50.104;8.074;2023-04-06T00:16:29;97378.19;;;-0.39;78.56
74708;BME280;63360;50.104;8.074;2023-04-06T00:18:56;97368.44;;;-0.42;78.64
74708;BME280;63360;50.104;8.074;2023-04-06T00:21:22;97370.53;;;-0.39;78.33
74708;BME280;63360;50.104;8.074;2023-04-06T00:23:49;97359.06;;;-0.37;78.91
74708;BME280;63360;50.104;8.074;2023-04-06T00:26:15;97366.06;;;-0.32;78.88
74708;BME280;63360;50.104;8.074;2023-04-06T00:28:41;97353.88;;;-0.42;77.64
74708;BME280;63360;50.104;8.074;2023-04-06T00:31:08;97353.66;;;-0.40;79.13
74708;BME280;63360;50.104;8.074;2023-04-06T00:33:34;97351.56;;;-0.43;80.06
74708;BME280;63360;50.104;8.074;2023-04-06T00:36:01;97353.09;;;-0.42;78.33
74708;BME280;63360;50.104;8.074;2023-04-06T00:38:27;97348.78;;;-0.42;78.28
74708;BME280;63360;50.104;8.074;2023-04-06T00:40:54;97346.28;;;-0.53;79.84
74708;BME280;63360;50.104;8.074;2023-04-06T00:43:20;97356.88;;;-0.45;79.15
74708;BME280;63360;50.104;8.074;2023-04-06T00:45:46;97355.28;;;-0.51;78.44
74708;BME280;63360;50.104;8.074;2023-04-06T00:48:13;97350.53;;;-0.42;79.13
74708;BME280;63360;50.104;8.074;2023-04-06T00:50:39;97345.13;;;-0.46;78.20
74708;BME280;63360;50.104;8.074;2023-04-06T00:53:06;97339.16;;;-0.51;79.67
74708;BME280;63360;50.104;8.074;2023-04-06T00:55:32;97337.06;;;-0.54;79.76
74708;BME280;63360;50.104;8.074;2023-04-06T00:57:59;97332.09;;;-0.61;76.27
74708;BME280;63360;50.104;8.074;2023-04-06T01:00:30;97333.22;;;-0.69;79.33
74708;BME280;63360;50.104;8.074;2023-04-06T01:02:56;97322.16;;;-0.74;80.78
74708;BME280;63360;50.104;8.074;2023-04-06T01:05:23;97333.47;;;-0.70;79.60
74708;BME280;63360;50.104;8.074;2023-04-06T01:07:49;97314.56;;;-0.69;79.24
74708;BME280;63360;50.104;8.074;2023-04-06T01:10:23;97317.44;;;-0.66;78.65
74708;BME280;63360;50.104;8.074;2023-04-06T01:12:50;97314.69;;;-0.64;77.92
74708;BME280;63360;50.104;8.074;2023-04-06T01:15:16;97319.13;;;-0.71;77.71
74708;BME280;63360;50.104;8.074;2023-04-06T01:17:43;97325.19;;;-0.61;77.75
74708;BME280;63360;50.104;8.074;2023-04-06T01:20:09;97319.56;;;-0.63;75.47
74708;BME280;63360;50.104;8.074;2023-04-06T01:22:36;97323.66;;;-0.62;77.79
74708;BME280;63360;50.104;8.074;2023-04-06T01:25:02;97307.41;;;-0.72;77.47
74708;BME280;63360;50.104;8.074;2023-04-06T01:27:29;97304.50;;;-0.76;78.43
74708;BME280;63360;50.104;8.074;2023-04-06T01:29:56;97310.94;;;-0.73;77.61
74708;BME280;63360;50.104;8.074;2023-04-06T01:32:22;97309.28;;;-0.79;78.70
74708;BME280;63360;50.104;8.074;2023-04-06T01:34:48;97300.84;;;-0.80;77.39
74708;BME280;63360;50.104;8.074;2023-04-06T01:37:15;97302.50;;;-0.74;76.95
74708;BME280;63360;50.104;8.074;2023-04-06T01:39:42;97306.06;;;-0.75;75.61
74708;BME280;63360;50.104;8.074;2023-04-06T01:42:09;97304.22;;;-0.63;76.68
74708;BME280;63360;50.104;8.074;2023-04-06T01:44:35;97287.34;;;-0.64;76.36
74708;BME280;63360;50.104;8.074;2023-04-06T01:47:03;97303.69;;;-0.65;76.53
74708;BME280;63360;50.104;8.074;2023-04-06T01:49:29;97296.47;;;-0.68;74.45
74708;BME280;63360;50.104;8.074;2023-04-06T01:51:56;97298.50;;;-0.70;78.15
74708;BME280;63360;50.104;8.074;2023-04-06T01:54:22;97280.75;;;-0.76;76.50
74708;BME280;63360;50.104;8.074;2023-04-06T01:56:49;97294.78;;;-0.62;75.44
74708;BME280;63360;50.104;8.074;2023-04-06T01:59:17;97294.72;;;-0.67;76.44
74708;BME280;63360;50.104;8.074;2023-04-06T02:01:44;97283.91;;;-0.69;76.11
74708;BME280;63360;50.104;8.074;2023-04-06T02:04:11;97282.75;;;-0.78;76.58
74708;BME280;63360;50.104;8.074;2023-04-06T02:06:38;97272.88;;;-0.75;76.05
74708;BME280;63360;50.104;8.074;2023-04-06T02:09:04;97284.28;;;-0.77;76.48
74708;BME280;63360;50.104;8.074;2023-04-06T02:11:31;97279.66;;;-0.80;76.83
74708;BME280;63360;50.104;8.074;2023-04-06T02:13:57;97291.66;;;-0.81;77.93
74708;BME280;63360;50.104;8.074;2023-04-06T02:16:23;97279.47;;;-0.90;77.46
74708;BME280;63360;50.104;8.074;2023-04-06T02:18:50;97291.41;;;-0.79;77.42
74708;BME280;63360;50.104;8.074;2023-04-06T02:21:17;97274.25;;;-0.84;78.40
74708;BME280;63360;50.104;8.074;2023-04-06T02:23:46;97287.41;;;-0.75;77.73
74708;BME280;63360;50.104;8.074;2023-04-06T02:26:13;97270.41;;;-0.70;76.06
74708;BME280;63360;50.104;8.074;2023-04-06T02:28:40;97283.84;;;-0.74;76.01
74708;BME280;63360;50.104;8.074;2023-04-06T02:31:07;97280.84;;;-0.71;77.50
74708;BME280;63360;50.104;8.074;2023-04-06T02:33:33;97281.00;;;-0.78;76.60
74708;BME280;63360;50.104;8.074;2023-04-06T02:35:59;97270.50;;;-0.93;77.64
74708;BME280;63360;50.104;8.074;2023-04-06T02:38:26;97277.97;;;-0.75;78.73
74708;BME280;63360;50.104;8.074;2023-04-06T02:40:52;97277.75;;;-0.73;78.58
74708;BME280;63360;50.104;8.074;2023-04-06T02:43:19;97273.94;;;-0.71;75.60
74708;BME280;63360;50.104;8.074;2023-04-06T02:45:45;97271.84;;;-0.74;76.71
74708;BME280;63360;50.104;8.074;2023-04-06T02:48:12;97272.50;;;-0.67;78.13
74708;BME280;63360;50.104;8.074;2023-04-06T02:50:38;97260.84;;;-0.74;76.59
74708;BME280;63360;50.104;8.074;2023-04-06T02:53:05;97269.09;;;-0.72;77.25
74708;BME280;63360;50.104;8.074;2023-04-06T02:55:31;97260.34;;;-0.59;75.86
74708;BME280;63360;50.104;8.074;2023-04-06T02:57:57;97275.50;;;-0.70;76.16
74708;BME280;63360;50.104;8.074;2023-04-06T03:00:24;97264.25;;;-0.85;76.75
74708;BME280;63360;50.104;8.074;2023-04-06T03:02:51;97265.22;;;-0.75;78.32
74708;BME280;63360;50.104;8.074;2023-04-06T03:05:17;97274.78;;;-0.82;78.09
74708;BME280;63360;50.104;8.074;2023-04-06T03:07:43;97267.97;;;-0.76;75.90
74708;BME280;63360;50.104;8.074;2023-04-06T03:10:11;97266.81;;;-0.69;76.30
74708;BME280;63360;50.104;8.074;2023-04-06T03:12:37;97256.50;;;-0.90;76.43
74708;BME280;63360;50.104;8.074;2023-04-06T03:15:04;97260.22;;;-0.81;78.70
74708;BME280;63360;50.104;8.074;2023-04-06T03:17:30;97256.84;;;-0.70;76.43
74708;BME280;63360;50.104;8.074;2023-04-06T03:19:57;97270.06;;;-0.73;75.82
74708;BME280;63360;50.104;8.074;2023-04-06T03:22:23;97264.97;;;-0.73;77.04
74708;BME280;63360;50.104;8.074;2023-04-06T03:24:50;97253.44;;;-0.76;75.93
74708;BME280;63360;50.104;8.074;2023-04-06T03:27:16;97265.50;;;-0.71;76.56
74708;BME280;63360;50.104;8.074;2023-04-06T03:29:42;97261.78;;;-0.64;75.74
74708;BME280;63360;50.104;8.074;2023-04-06T03:32:09;97270.09;;;-0.56;75.99
74708;BME280;63360;50.104;8.074;2023-04-06T03:34:37;97265.13;;;-0.63;74.67
74708;BME280;63360;50.104;8.074;2023-04-06T03:37:03;97268.34;;;-0.56;74.38
74708;BME280;63360;50.104;8.074;2023-04-06T03:39:36;97272.88;;;-0.58;75.39
74708;BME280;63360;50.104;8.074;2023-04-06T03:42:02;97257.38;;;-0.68;75.94
74708;BME280;63360;50.104;8.074;2023-04-06T03:44:29;97264.34;;;-0.80;75.08
74708;BME280;63360;50.104;8.074;2023-04-06T03:46:55;97263.78;;;-0.82;75.63
74708;BME280;63360;50.104;8.074;2023-04-06T03:49:22;97263.03;;;-0.83;76.63
74708;BME280;63360;50.104;8.074;2023-04-06T03:51:48;97272.78;;;-0.63;75.50
74708;BME280;63360;50.104;8.074;2023-04-06T03:54:15;97264.25;;;-0.85;75.54
74708;BME280;63360;50.104;8.074;2023-04-06T03:56:41;97266.97;;;-0.58;74.58
74708;BME280;63360;50.104;8.074;2023-04-06T03:59:08;97280.84;;;-0.54;74.02
74708;BME280;63360;50.104;8.074;2023-04-06T04:01:34;97285.03;;;-0.65;75.27
74708;BME280;63360;50.104;8.074;2023-04-06T04:04:01;97280.06;;;-0.72;76.07
74708;BME280;63360;50.104;8.074;2023-04-06T04:06:28;97282.31;;;-0.75;76.32
74708;BME280;63360;50.104;8.074;2023-04-06T04:08:54;97290.31;;;-0.55;74.54
74708;BME280;63360;50.104;8.074;2023-04-06T04:11:20;97283.00;;;-0.63;76.02
74708;BME280;63360;50.104;8.074;2023-04-06T04:13:47;97274.69;;;-0.87;75.41
74708;BME280;63360;50.104;8.074;2023-04-06T04:16:13;97279.25;;;-0.89;76.93
74708;BME280;63360;50.104;8.074;2023-04-06T04:18:39;97277.16;;;-0.92;76.14
74708;BME280;63360;50.104;8.074;2023-04-06T04:21:06;97289.09;;;-0.81;77.14
74708;BME280;63360;50.104;8.074;2023-04-06T04:23:32;97286.22;;;-0.84;77.55
74708;BME280;63360;50.104;8.074;2023-04-06T04:26:01;97291.81;;;-0.71;76.29
74708;BME280;63360;50.104;8.074;2023-04-06T04:28:28;97294.25;;;-0.64;75.41
74708;BME280;63360;50.104;8.074;2023-04-06T04:30:54;97289.19;;;-0.76;74.51
74708;BME280;63360;50.104;8.074;2023-04-06T04:33:21;97293.34;;;-0.86;76.72
74708;BME280;63360;50.104;8.074;2023-04-06T04:35:47;97295.72;;;-0.96;76.28
74708;BME280;63360;50.104;8.074;2023-04-06T04:38:14;97296.88;;;-1.04;78.36
74708;BME280;63360;50.104;8.074;2023-04-06T04:40:40;97299.91;;;-0.90;78.03
74708;BME280;63360;50.104;8.074;2023-04-06T04:43:07;97285.19;;;-1.00;78.04
74708;BME280;63360;50.104;8.074;2023-04-06T04:45:33;97283.31;;;-1.04;76.57
74708;BME280;63360;50.104;8.074;2023-04-06T04:48:00;97299.34;;;-0.92;77.66
74708;BME280;63360;50.104;8.074;2023-04-06T04:50:26;97292.22;;;-1.07;78.64
74708;BME280;63360;50.104;8.074;2023-04-06T04:52:53;97304.19;;;-1.07;78.75
74708;BME280;63360;50.104;8.074;2023-04-06T04:55:19;97294.16;;;-0.97;77.78
74708;BME280;63360;50.104;8.074;2023-04-06T04:57:45;97300.03;;;-0.97;77.68
74708;BME280;63360;50.104;8.074;2023-04-06T05:00:12;97284.59;;;-1.18;77.64
74708;BME280;63360;50.104;8.074;2023-04-06T05:02:39;97295.13;;;-1.15;78.76
74708;BME280;63360;50.104;8.074;2023-04-06T05:05:06;97306.38;;;-0.99;78.78
74708;BME280;63360;50.104;8.074;2023-04-06T05:07:33;97303.22;;;-0.90;76.52
74708;BME280;63360;50.104;8.074;2023-04-06T05:10:00;97302.50;;;-1.02;77.31
74708;BME280;63360;50.104;8.074;2023-04-06T05:12:26;97304.00;;;-0.89;76.41
74708;BME280;63360;50.104;8.074;2023-04-06T05:14:53;97295.63;;;-1.01;77.82
74708;BME280;63360;50.104;8.074;2023-04-06T05:17:20;97303.16;;;-0.95;78.49
74708;BME280;63360;50.104;8.074;2023-04-06T05:19:46;97290.72;;;-0.91;78.43
74708;BME280;63360;50.104;8.074;2023-04-06T05:22:13;97303.78;;;-0.88;79.31
74708;BME280;63360;50.104;8.074;2023-04-06T05:24:42;97302.94;;;-0.77;77.78
74708;BME280;63360;50.104;8.074;2023-04-06T05:27:09;97293.97;;;-0.79;78.25
74708;BME280;63360;50.104;8.074;2023-04-06T05:29:35;97293.31;;;-0.75;78.65
74708;BME280;63360;50.104;8.074;2023-04-06T05:32:02;97308.19;;;-0.55;79.11
74708;BME280;63360;50.104;8.074;2023-04-06T05:34:28;97297.97;;;-0.55;79.32
74708;BME280;63360;50.104;8.074;2023-04-06T05:36:55;97306.06;;;-0.30;77.85
74708;BME280;63360;50.104;8.074;2023-04-06T05:39:21;97291.78;;;-0.26;76.09
74708;BME280;63360;50.104;8.074;2023-04-06T05:41:48;97296.13;;;-0.26;76.60
74708;BME280;63360;50.104;8.074;2023-04-06T05:44:15;97291.72;;;-0.14;77.25
74708;BME280;63360;50.104;8.074;2023-04-06T05:46:41;97305.19;;;-0.02;77.69
74708;BME280;63360;50.104;8.074;2023-04-06T05:49:08;97295.72;;;0.15;76.27
74708;BME280;63360;50.104;8.074;2023-04-06T05:51:34;97309.97;;;0.28;75.46
74708;BME280;63360;50.104;8.074;2023-04-06T05:54:01;97309.81;;;0.34;75.07
74708;BME280;63360;50.104;8.074;2023-04-06T05:56:27;97300.47;;;0.45;76.75
74708;BME280;63360;50.104;8.074;2023-04-06T05:58:55;97299.88;;;0.59;76.07
74708;BME280;63360;50.104;8.074;2023-04-06T06:01:22;97306.97;;;0.74;74.87
74708;BME280;63360;50.104;8.074;2023-04-06T06:03:48;97298.09;;;0.82;76.22
74708;BME280;63360;50.104;8.074;2023-04-06T06:06:14;97299.28;;;0.96;76.67
74708;BME280;63360;50.104;8.074;2023-04-06T06:08:41;97303.00;;;1.10;76.97
74708;BME280;63360;50.104;8.074;2023-04-06T06:11:07;97309.09;;;1.31;74.87
74708;BME280;63360;50.104;8.074;2023-04-06T06:13:34;97298.38;;;1.34;75.89
74708;BME280;63360;50.104;8.074;2023-04-06T06:16:00;97301.66;;;1.56;74.90
74708;BME280;63360;50.104;8.074;2023-04-06T06:18:26;97307.72;;;1.76;76.17
74708;BME280;63360;50.104;8.074;2023-04-06T06:20:53;97303.78;;;1.96;74.80
74708;BME280;63360;50.104;8.074;2023-04-06T06:23:20;97291.28;;;2.09;71.83
74708;BME280;63360;50.104;8.074;2023-04-06T06:25:46;97312.94;;;2.23;72.22
74708;BME280;63360;50.104;8.074;2023-04-06T06:28:13;97306.34;;;2.42;71.53
74708;BME280;63360;50.104;8.074;2023-04-06T06:30:39;97301.31;;;2.58;68.78
74708;BME280;63360;50.104;8.074;2023-04-06T06:33:06;97309.22;;;3.08;65.38
74708;BME280;63360;50.104;8.074;2023-04-06T06:35:32;97292.25;;;3.22;63.62
74708;BME280;63360;50.104;8.074;2023-04-06T06:37:59;97302.59;;;3.52;60.99
74708;BME280;63360;50.104;8.074;2023-04-06T06:40:25;97301.09;;;3.72;61.15
74708;BME280;63360;50.104;8.074;2023-04-06T06:42:53;97296.19;;;3.95;60.56
74708;BME280;63360;50.104;8.074;2023-04-06T06:45:19;97312.88;;;4.28;59.84
74708;BME280;63360;50.104;8.074;2023-04-06T06:47:46;97311.03;;;4.49;57.81
74708;BME280;63360;50.104;8.074;2023-04-06T06:50:13;97309.91;;;4.80;58.02
74708;BME280;63360;50.104;8.074;2023-04-06T06:52:39;97314.16;;;5.10;56.81
74708;BME280;63360;50.104;8.074;2023-04-06T06:55:06;97310.41;;;5.70;56.00
74708;BME280;63360;50.104;8.074;2023-04-06T06:57:33;97297.53;;;6.03;55.32
74708;BME280;63360;50.104;8.074;2023-04-06T06:59:59;97311.41;;;6.65;50.03
74708;BME280;63360;50.104;8.074;2023-04-06T07:02:26;97300.28;;;7.07;51.23
74708;BME280;63360;50.104;8.074;2023-04-06T07:04:52;97301.41;;;7.38;50.37
74708;BME280;63360;50.104;8.074;2023-04-06T07:07:19;97303.78;;;8.18;46.95
74708;BME280;63360;50.104;8.074;2023-04-06T07:09:46;97301.88;;;8.23;45.12
74708;BME280;63360;50.104;8.074;2023-04-06T07:12:12;97304.44;;;8.56;45.65
74708;BME280;63360;50.104;8.074;2023-04-06T07:14:38;97292.47;;;8.46;44.66
74708;BME280;63360;50.104;8.074;2023-04-06T07:17:05;97300.16;;;9.28;43.20
74708;BME280;63360;50.104;8.074;2023-04-06T07:19:31;97304.25;;;9.06;42.78
74708;BME280;63360;50.104;8.074;2023-04-06T07:21:58;97305.16;;;9.24;44.50
74708;BME280;63360;50.104;8.074;2023-04-06T07:24:24;97296.81;;;9.71;41.34
74708;BME280;63360;50.104;8.074;2023-04-06T07:26:50;97307.47;;;9.48;42.67
74708;BME280;63360;50.104;8.074;2023-04-06T07:29:17;97309.53;;;9.95;42.95
74708;BME280;63360;50.104;8.074;2023-04-06T07:31:44;97294.38;;;10.19;40.40
74708;BME280;63360;50.104;8.074;2023-04-06T07:34:11;97290.59;;;10.25;39.37
74708;BME280;63360;50.104;8.074;2023-04-06T07:36:37;97301.94;;;10.29;41.38
74708;BME280;63360;50.104;8.074;2023-04-06T07:39:03;97286.47;;;10.64;39.44
74708;BME280;63360;50.104;8.074;2023-04-06T07:41:30;97293.16;;;11.13;37.93
74708;BME280;63360;50.104;8.074;2023-04-06T07:43:57;97288.22;;;10.46;39.08
74708;BME280;63360;50.104;8.074;2023-04-06T07:46:24;97289.34;;;11.02;38.79
74708;BME280;63360;50.104;8.074;2023-04-06T07:48:50;97296.50;;;10.96;40.81
74708;BME280;63360;50.104;8.074;2023-04-06T07:51:17;97298.00;;;10.80;39.47
74708;BME280;63360;50.104;8.074;2023-04-06T07:53:44;97292.88;;;11.31;39.58
74708;BME280;63360;50.104;8.074;2023-04-06T07:56:11;97284.59;;;11.29;38.64
74708;BME280;63360;50.104;8.074;2023-04-06T07:58:38;97284.88;;;11.11;39.66
74708;BME280;63360;50.104;8.074;2023-04-06T08:01:04;97290.75;;;11.33;37.78
74708;BME280;63360;50.104;8.074;2023-04-06T08:03:33;97291.50;;;11.85;38.44
74708;BME280;63360;50.104;8.074;2023-04-06T08:06:00;97295.66;;;11.78;36.10
74708;BME280;63360;50.104;8.074;2023-04-06T08:08:27;97284.09;;;12.04;37.35
74708;BME280;63360;50.104;8.074;2023-04-06T08:10:53;97296.88;;;11.72;36.28
74708;BME280;63360;50.104;8.074;2023-04-06T08:13:20;97303.75;;;11.68;37.54
74708;BME280;63360;50.104;8.074;2023-04-06T08:15:47;97301.31;;;11.97;36.83
74708;BME280;63360;50.104;8.074;2023-04-06T08:18:13;97293.50;;;11.63;38.16
74708;BME280;63360;50.104;8.074;2023-04-06T08:20:40;97297.00;;;11.32;37.90
74708;BME280;63360;50.104;8.074;2023-04-06T08:23:06;97293.03;;;11.43;38.72
74708;BME280;63360;50.104;8.074;2023-04-06T08:25:35;97301.94;;;11.60;36.97
74708;BME280;63360;50.104;8.074;2023-04-06T08:28:03;97303.72;;;11.16;39.76
74708;BME280;63360;50.104;8.074;2023-04-06T08:30:29;97305.25;;;11.26;41.81
74708;BME280;63360;50.104;8.074;2023-04-06T08:32:56;97302.31;;;10.93;40.41
74708;BME280;63360;50.104;8.074;2023-04-06T08:35:22;97295.59;;;11.18;40.38
74708;BME280;63360;50.104;8.074;2023-04-06T08:37:49;97292.59;;;11.41;40.16
74708;BME280;63360;50.104;8.074;2023-04-06T08:40:16;97296.22;;;11.06;38.76
74708;BME280;63360;50.104;8.074;2023-04-06T08:42:46;97306.19;;;11.30;39.62
74708;BME280;63360;50.104;8.074;2023-04-06T08:45:16;97302.69;;;11.43;40.55
74708;BME280;63360;50.104;8.074;2023-04-06T08:47:43;97293.94;;;11.30;40.24
74708;BME280;63360;50.104;8.074;2023-04-06T08:50:10;97298.59;;;11.76;39.60
74708;BME280;63360;50.104;8.074;2023-04-06T08:52:40;97296.41;;;11.78;37.28
74708;BME280;63360;50.104;8.074;2023-04-06T08:55:07;97304.69;;;11.80;40.76
74708;BME280;63360;50.104;8.074;2023-04-06T08:57:35;97295.66;;;11.86;38.62
74708;BME280;63360;50.104;8.074;2023-04-06T09:00:02;97302.25;;;11.84;38.02
74708;BME280;63360;50.104;8.074;2023-04-06T09:02:28;97302.34;;;12.13;37.89
74708;BME280;63360;50.104;8.074;2023-04-06T09:04:55;97313.56;;;12.05;37.91
74708;BME280;63360;50.104;8.074;2023-04-06T09:07:22;97305.91;;;11.83;39.11
74708;BME280;63360;50.104;8.074;2023-04-06T09:09:48;97295.16;;;11.93;37.25
74708;BME280;63360;50.104;8.074;2023-04-06T09:12:28;97312.19;;;11.90;37.89
74708;BME280;63360;50.104;8.074;2023-04-06T09:14:55;97305.25;;;12.03;38.30
74708;BME280;63360;50.104;8.074;2023-04-06T09:17:24;97305.63;;;11.76;40.20
74708;BME280;63360;50.104;8.074;2023-04-06T09:19:51;97310.69;;;11.81;38.88
74708;BME280;63360;50.104;8.074;2023-04-06T09:22:18;97304.66;;;11.63;39.84
74708;BME280;63360;50.104;8.074;2023-04-06T09:24:53;97318.31;;;11.60;40.38
74708;BME280;63360;50.104;8.074;2023-04-06T09:27:33;97305.25;;;11.26;40.49
74708;BME280;63360;50.104;8.074;2023-04-06T09:30:07;97314.38;;;10.41;41.47
74708;BME280;63360;50.104;8.074;2023-04-06T09:32:47;97321.16;;;10.59;41.61
74708;BME280;63360;50.104;8.074;2023-04-06T09:35:14;97307.28;;;10.33;41.60
74708;BME280;63360;50.104;8.074;2023-04-06T09:37:44;97303.84;;;9.93;42.72
74708;BME280;63360;50.104;8.074;2023-04-06T09:40:12;97305.03;;;9.65;43.09
74708;BME280;63360;50.104;8.074;2023-04-06T09:42:45;97311.41;;;9.59;44.59
74708;BME280;63360;50.104;8.074;2023-04-06T09:45:13;97304.72;;;9.44;44.61
74708;BME280;63360;50.104;8.074;2023-04-06T09:47:43;97293.81;;;9.34;45.37
74708;BME280;63360;50.104;8.074;2023-04-06T09:50:13;97296.41;;;9.34;43.22
74708;BME280;63360;50.104;8.074;2023-04-06T09:52:50;97292.47;;;9.23;43.41
74708;BME280;63360;50.104;8.074;2023-04-06T09:55:30;97308.06;;;9.23;45.57
74708;BME280;63360;50.104;8.074;2023-04-06T09:58:05;97311.53;;;9.18;43.76
74708;BME280;63360;50.104;8.074;2023-04-06T10:00:43;97295.22;;;9.04;44.79
74708;BME280;63360;50.104;8.074;2023-04-06T10:03:14;97305.06;;;9.15;45.83
74708;BME280;63360;50.104;8.074;2023-04-06T10:05:52;97312.28;;;9.19;44.50
74708;BME280;63360;50.104;8.074;2023-04-06T10:08:24;97319.59;;;9.03;43.75
74708;BME280;63360;50.104;8.074;2023-04-06T10:10:51;97298.38;;;8.87;46.28
74708;BME280;63360;50.104;8.074;2023-04-06T10:13:18;97311.06;;;9.02;45.59
74708;BME280;63360;50.104;8.074;2023-04-06T10:15:45;97311.47;;;8.96;45.25
74708;BME280;63360;50.104;8.074;2023-04-06T10:18:11;97303.66;;;8.96;44.99
74708;BME280;63360;50.104;8.074;2023-04-06T10:21:15;97311.47;;;8.96;44.80
74708;BME280;63360;50.104;8.074;2023-04-06T10:23:51;97309.53;;;8.88;45.86
74708;BME280;63360;50.104;8.074;2023-04-06T10:26:20;97316.19;;;8.94;46.22
74708;BME280;63360;50.104;8.074;2023-04-06T10:28:48;97313.47;;;8.99;46.03
74708;BME280;63360;50.104;8.074;2023-04-06T10:31:23;97310.78;;;9.04;47.75
74708;BME280;63360;50.104;8.074;2023-04-06T10:34:01;97293.06;;;9.20;46.31
74708;BME280;63360;50.104;8.074;2023-04-06T10:36:32;97298.09;;;9.38;46.97
74708;BME280;63360;50.104;8.074;2023-04-06T10:39:01;97302.88;;;9.45;46.25
74708;BME280;63360;50.104;8.074;2023-04-06T10:41:46;97293.34;;;9.54;47.17
74708;BME280;63360;50.104;8.074;2023-04-06T10:44:21;97298.72;;;9.57;44.28
74708;BME280;63360;50.104;8.074;2023-04-06T10:46:59;97300.34;;;9.53;45.82
74708;BME280;63360;50.104;8.074;2023-04-06T10:49:29;97293.38;;;9.40;46.63
74708;BME280;63360;50.104;8.074;2023-04-06T10:51:56;97306.81;;;9.42;47.94
74708;BME280;63360;50.104;8.074;2023-04-06T10:54:24;97300.19;;;9.50;48.67
74708;BME280;63360;50.104;8.074;2023-04-06T10:56:52;97291.06;;;9.52;46.86
74708;BME280;63360;50.104;8.074;2023-04-06T10:59:19;97301.97;;;9.63;46.61
74708;BME280;63360;50.104;8.074;2023-04-06T11:01:47;97297.28;;;9.51;45.67
74708;BME280;63360;50.104;8.074;2023-04-06T11:04:17;97290.31;;;9.38;47.13
74708;BME280;63360;50.104;8.074;2023-04-06T11:06:49;97296.28;;;9.39;47.53
74708;BME280;63360;50.104;8.074;2023-04-06T11:09:29;97296.44;;;9.42;46.54
74708;BME280;63360;50.104;8.074;2023-04-06T11:11:56;97288.66;;;9.42;45.89
74708;BME280;63360;50.104;8.074;2023-04-06T11:14:23;97289.03;;;9.49;47.34
74708;BME280;63360;50.104;8.074;2023-04-06T11:16:50;97283.84;;;9.49;48.21
74708;BME280;63360;50.104;8.074;2023-04-06T11:19:17;97274.34;;;9.67;49.28
74708;BME280;63360;50.104;8.074;2023-04-06T11:21:45;97272.38;;;9.72;49.57
74708;BME280;63360;50.104;8.074;2023-04-06T11:24:17;97286.44;;;9.94;50.72
74708;BME280;63360;50.104;8.074;2023-04-06T11:26:46;97278.03;;;9.97;48.38
74708;BME280;63360;50.104;8.074;2023-04-06T11:29:16;97271.16;;;10.01;47.22
74708;BME280;63360;50.104;8.074;2023-04-06T11:32:21;97276.34;;;9.92;46.50
74708;BME280;63360;50.104;8.074;2023-04-06T11:34:39;97280.19;;;9.95;47.01
74708;BME280;63360;50.104;8.074;2023-04-06T11:37:08;97252.78;;;9.89;46.96
74708;BME280;63360;50.104;8.074;2023-04-06T11:39:42;97259.59;;;10.07;46.97
74708;BME280;63360;50.104;8.074;2023-04-06T11:42:09;97249.06;;;10.12;45.21
74708;BME280;63360;50.104;8.074;2023-04-06T11:44:39;97257.84;;;10.16;45.97
74708;BME280;63360;50.104;8.074;2023-04-06T11:47:08;97241.72;;;10.05;46.45
74708;BME280;63360;50.104;8.074;2023-04-06T11:49:40;97255.09;;;10.21;45.52
74708;BME280;63360;50.104;8.074;2023-04-06T11:52:23;97242.72;;;10.18;46.62
74708;BME280;63360;50.104;8.074;2023-04-06T11:54:52;97228.28;;;10.12;45.30
74708;BME280;63360;50.104;8.074;2023-04-06T11:57:20;97231.44;;;10.31;46.26
74708;BME280;63360;50.104;8.074;2023-04-06T11:59:47;97231.03;;;10.38;46.56
74708;BME280;63360;50.104;8.074;2023-04-06T12:02:13;97224.72;;;10.39;48.43
74708;BME280;63360;50.104;8.074;2023-04-06T12:04:40;97235.47;;;10.54;45.23
74708;BME280;63360;50.104;8.074;2023-04-06T12:07:06;97223.81;;;10.34;45.93
74708;BME280;63360;50.104;8.074;2023-04-06T12:09:33;97232.25;;;10.49;44.80
74708;BME280;63360;50.104;8.074;2023-04-06T12:12:02;97234.56;;;10.50;44.35
74708;BME280;63360;50.104;8.074;2023-04-06T12:14:29;97233.03;;;10.49;45.89
74708;BME280;63360;50.104;8.074;2023-04-06T12:16:57;97233.00;;;10.41;46.21
74708;BME280;63360;50.104;8.074;2023-04-06T12:19:24;97229.19;;;10.47;46.87
74708;BME280;63360;50.104;8.074;2023-04-06T12:21:54;97230.59;;;10.53;47.78
74708;BME280;63360;50.104;8.074;2023-04-06T12:24:20;97233.81;;;10.58;46.98
74708;BME280;63360;50.104;8.074;2023-04-06T12:26:47;97224.44;;;10.49;46.26
74708;BME280;63360;50.104;8.074;2023-04-06T12:29:19;97223.22;;;10.38;46.91
74708;BME280;63360;50.104;8.074;2023-04-06T12:31:46;97215.28;;;10.43;46.44
74708;BME280;63360;50.104;8.074;2023-04-06T12:34:12;97221.88;;;10.57;48.21
74708;BME280;63360;50.104;8.074;2023-04-06T12:36:38;97222.66;;;10.58;46.51
74708;BME280;63360;50.104;8.074;2023-04-06T12:39:05;97227.41;;;10.64;47.08
74708;BME280;63360;50.104;8.074;2023-04-06T12:41:32;97219.00;;;10.76;44.48
74708;BME280;63360;50.104;8.074;2023-04-06T12:43:58;97202.00;;;10.70;44.10
74708;BME280;63360;50.104;8.074;2023-04-06T12:46:28;97211.50;;;10.74;46.33
74708;BME280;63360;50.104;8.074;2023-04-06T12:48:56;97208.75;;;10.71;45.74
74708;BME280;63360;50.104;8.074;2023-04-06T12:51:27;97206.91;;;10.71;44.51
74708;BME280;63360;50.104;8.074;2023-04-06T12:53:54;97215.94;;;10.65;45.71
74708;BME280;63360;50.104;8.074;2023-04-06T12:56:20;97215.44;;;10.55;46.63
74708;BME280;63360;50.104;8.074;2023-04-06T12:58:50;97215.63;;;10.67;47.17
74708;BME280;63360;50.104;8.074;2023-04-06T13:01:17;97205.97;;;10.50;46.22
74708;BME280;63360;50.104;8.074;2023-04-06T13:03:44;97211.16;;;10.50;46.42
74708;BME280;63360;50.104;8.074;2023-04-06T13:06:10;97204.28;;;10.54;46.51